Time;durP1;ratioP1;P1;durP2;ratioP2;P2;SDS_P1;SDS_P2;PMS_P1;PMS_P2;Temp;Humidity;BMP_temperature;BMP_pressure;BME280_temperature;BME280_humidity;BME280_pressure;Samples;Min_cycle;Max_cycle;Signal;HPM_P1;HPM_P2
2021/11/09 05:52:33;;;;;;;;;;;;;;;2.03;100.00;100604.38;4926384;29;19930;-82
2021/11/09 05:54:59;;;;;;;;;;;;;;;2.06;100.00;100607.00;4926177;29;19938;-83
2021/11/09 05:57:24;;;;;;;;;;;;;;;2.10;100.00;100607.03;4926074;29;19919;-82
2021/11/09 05:59:49;;;;;;;;;;;;;;;2.07;100.00;100612.25;4925752;29;19998;-82
2021/11/09 06:02:15;;;;;;;;;;;;;;;2.10;100.00;100609.66;4925993;29;20344;-82
2021/11/09 06:04:40;;;;;;;;;;;;;;;2.17;100.00;100615.78;4924467;29;19933;-82
2021/11/09 06:07:06;;;;;;;;;;;;;;;2.15;100.00;100618.41;4925388;29;19923;-82
2021/11/09 06:09:31;;;;;;;;;;;;;;;2.15;100.00;100620.13;4925561;29;19919;-83
2021/11/09 06:11:57;;;;;;;;;;;;;;;2.22;100.00;100616.69;4925617;29;19923;-83
2021/11/09 06:14:22;;;;;;;;;;;;;;;2.26;100.00;100618.44;4941642;29;19997;-82
2021/11/09 06:16:47;;;;;;;;;;;;;;;2.41;99.70;100614.13;4926926;29;20010;-82
2021/11/09 06:19:13;;;;;;;;;;;;;;;2.38;99.15;100616.72;4921249;29;20329;-82
2021/11/09 06:21:38;;;;;;;;;;;;;;;2.34;98.44;100621.94;4927008;29;19966;-83
2021/11/09 06:24:03;;;;;;;;;;;;;;;2.40;98.22;100625.47;4926271;29;20529;-83
2021/11/09 06:26:29;;;;;;;;;;;;;;;2.49;97.61;100622.88;4924881;29;19923;-83
2021/11/09 06:28:59;;;;;;;;;;;;;;;2.51;96.99;100623.78;4924616;29;19922;-84
2021/11/09 06:31:27;;;;;;;;;;;;;;;2.47;96.36;100627.25;4925585;29;19926;-83
2021/11/09 06:33:52;;;;;;;;;;;;;;;2.48;95.93;100629.00;4924333;29;20395;-83
2021/11/09 06:36:17;;;;;;;;;;;;;;;2.54;94.53;100634.25;4925348;29;19954;-84
2021/11/09 06:38:43;;;;;;;;;;;;;;;2.59;93.71;100636.91;4926702;29;20017;-83
2021/11/09 06:41:08;;;;;;;;;;;;;;;2.66;93.44;100638.66;4926480;29;20387;-84
2021/11/09 06:43:34;;;;;;;;;;;;;;;2.82;96.90;100642.19;4926090;29;19930;-84
2021/11/09 06:45:59;;;;;;;;;;;;;;;3.18;100.00;100638.75;4926204;29;19918;-85
2021/11/09 06:48:25;;;;;;;;;;;;;;;3.20;100.00;100647.47;4923923;29;19923;-83
2021/11/09 06:50:51;;;;;;;;;;;;;;;3.14;100.00;100649.22;4926191;29;20005;-83
2021/11/09 06:53:16;;;;;;;;;;;;;;;3.14;100.00;100657.09;4926340;29;20010;-83
2021/11/09 06:55:42;;;;;;;;;;;;;;;3.19;100.00;100664.09;4925857;29;19958;-84
2021/11/09 06:58:07;;;;;;;;;;;;;;;3.26;99.16;100664.97;4925766;29;19969;-83
2021/11/09 07:00:33;;;;;;;;;;;;;;;3.16;98.38;100668.41;4925060;29;19919;-83
2021/11/09 07:02:58;;;;;;;;;;;;;;;3.30;98.65;100669.31;4925740;29;19937;-84
2021/11/09 07:05:24;;;;;;;;;;;;;;;3.25;97.74;100669.31;4925108;29;19919;-83
2021/11/09 07:07:49;;;;;;;;;;;;;;;3.31;97.82;100668.44;4925741;29;19919;-84
2021/11/09 07:10:14;;;;;;;;;;;;;;;3.24;96.62;100664.97;4924494;29;19930;-83
2021/11/09 07:12:40;;;;;;;;;;;;;;;3.15;95.92;100670.19;4925814;29;20283;-83
2021/11/09 07:15:06;;;;;;;;;;;;;;;3.12;95.87;100662.31;4925981;29;19923;-83
2021/11/09 07:17:32;;;;;;;;;;;;;;;3.21;95.79;100670.19;4925571;29;19922;-84
2021/11/09 07:19:58;;;;;;;;;;;;;;;3.25;95.84;100673.69;4924524;29;19919;-84
2021/11/09 07:22:23;;;;;;;;;;;;;;;3.16;94.30;100671.03;4925599;29;19966;-83
2021/11/09 07:24:49;;;;;;;;;;;;;;;3.14;94.72;100672.78;4925633;29;19919;-84
2021/11/09 07:27:14;;;;;;;;;;;;;;;3.18;94.26;100674.56;4924422;29;19919;-83
2021/11/09 07:29:46;;;;;;;;;;;;;;;3.21;93.20;100677.19;4925575;29;19922;-83
2021/11/09 07:32:11;;;;;;;;;;;;;;;3.16;92.57;100684.13;4924159;29;19926;-83
2021/11/09 07:34:37;;;;;;;;;;;;;;;3.11;92.24;100683.25;4924253;29;19923;-83
2021/11/09 07:37:03;;;;;;;;;;;;;;;3.23;92.40;100683.28;4924242;29;19919;-84
2021/11/09 07:39:28;;;;;;;;;;;;;;;3.16;91.62;100686.75;4923988;29;19924;-84
2021/11/09 07:41:53;;;;;;;;;;;;;;;3.16;91.46;100692.00;4922551;29;19926;-83
2021/11/09 07:44:19;;;;;;;;;;;;;;;3.15;90.84;100692.88;4925851;29;19919;-84
2021/11/09 07:46:44;;;;;;;;;;;;;;;3.15;90.52;100683.28;4924167;29;20330;-84
2021/11/09 07:49:10;;;;;;;;;;;;;;;3.11;89.85;100688.50;4922830;29;19969;-83
2021/11/09 07:51:36;;;;;;;;;;;;;;;3.15;89.84;100696.38;4923794;29;19962;-83
2021/11/09 07:54:02;;;;;;;;;;;;;;;3.14;89.41;100693.75;4925118;29;19919;-84
2021/11/09 07:56:36;;;;;;;;;;;;;;;3.16;89.60;100692.88;4922858;29;19925;-83
2021/11/09 08:01:42;;;;;;;;;;;;;;;3.36;88.90;100681.56;4925326;29;19925;-83
2021/11/09 09:04:51;;;;;;;;;;;;;;;3.77;84.13;100673.69;4889053;29;19979;-86
2021/11/09 09:07:16;;;;;;;;;;;;;;;3.77;84.26;100676.31;4875102;29;19923;-85
2021/11/09 09:09:42;;;;;;;;;;;;;;;3.85;83.96;100672.84;4891191;29;20401;-89
2021/11/09 09:12:07;;;;;;;;;;;;;;;3.94;83.47;100667.53;4890402;29;19932;-88
2021/11/09 09:14:35;;;;;;;;;;;;;;;3.89;83.52;100675.41;4888871;29;19956;-88
2021/11/09 09:17:03;;;;;;;;;;;;;;;3.98;83.47;100672.78;4891112;29;20299;-87
2021/11/09 09:19:34;;;;;;;;;;;;;;;3.98;83.01;100671.94;4890728;29;19935;-88
2021/11/09 09:25:00;;;;;;;;;;;;;;;4.00;83.36;100662.28;4890179;29;19924;-86
2021/11/09 09:27:58;;;;;;;;;;;;;;;4.06;83.40;100667.53;4890437;29;19923;-84
2021/11/09 09:54:50;;;;;;;;;;;;;;;4.23;82.23;100661.38;4890595;29;19934;-85
2021/11/09 09:57:16;;;;;;;;;;;;;;;4.22;82.67;100657.88;4889927;29;20380;-88
2021/11/09 09:59:42;;;;;;;;;;;;;;;4.25;82.48;100659.63;4888368;29;20026;-85
2021/11/09 10:02:16;;;;;;;;;;;;;;;4.24;82.40;100665.75;4873094;29;19933;-87
2021/11/09 10:04:43;;;;;;;;;;;;;;;4.27;82.57;100652.63;4888805;29;20490;-86
2021/11/09 10:07:08;;;;;;;;;;;;;;;4.23;82.93;100656.13;4888461;29;19978;-87
2021/11/09 10:09:34;;;;;;;;;;;;;;;4.30;82.78;100655.22;4901622;29;19923;-84
2021/11/09 10:12:13;;;;;;;;;;;;;;;4.30;82.81;100649.97;4889012;29;19930;-85
2021/11/09 10:14:38;;;;;;;;;;;;;;;4.31;83.14;100647.34;4872190;29;20021;-89
2021/11/09 10:17:13;;;;;;;;;;;;;;;4.34;83.38;100642.09;4888765;29;20027;-87
2021/11/09 10:19:38;;;;;;;;;;;;;;;4.32;83.31;100648.22;4888305;29;19928;-85
2021/11/09 10:22:21;;;;;;;;;;;;;;;4.33;83.42;100637.72;4889173;29;19924;-85
2021/11/09 10:24:52;;;;;;;;;;;;;;;4.34;83.52;100633.34;4890538;29;21788;-85
2021/11/09 10:27:18;;;;;;;;;;;;;;;4.38;84.17;100631.59;4872418;29;19923;-86
2021/11/09 10:29:44;;;;;;;;;;;;;;;4.34;84.24;100628.97;4871081;29;20014;-88
2021/11/09 10:32:36;;;;;;;;;;;;;;;4.36;84.55;100628.97;5099204;27;19924;-87
2021/11/09 10:35:02;;;;;;;;;;;;;;;4.34;84.79;100628.97;5087743;28;19932;-85
2021/11/09 10:37:29;;;;;;;;;;;;;;;4.39;85.27;100625.44;5085575;28;19955;-85
2021/11/09 10:39:57;;;;;;;;;;;;;;;4.41;85.36;100629.81;5087368;28;19920;-89
2021/11/09 10:42:24;;;;;;;;;;;;;;;4.47;85.52;100632.44;5088848;28;19931;-86
2021/11/09 10:44:52;;;;;;;;;;;;;;;4.43;85.89;100625.44;5085914;28;19926;-86
2021/11/09 10:47:23;;;;;;;;;;;;;;;4.45;86.08;100615.81;5085089;28;20007;-85
2021/11/09 10:49:49;;;;;;;;;;;;;;;4.45;86.18;100610.56;5088504;28;19931;-91
2021/11/09 10:52:19;;;;;;;;;;;;;;;4.49;86.29;100611.41;5088598;28;19920;-86
2021/11/09 10:54:48;;;;;;;;;;;;;;;4.54;86.65;100615.75;5088348;28;20377;-85
2021/11/09 10:57:27;;;;;;;;;;;;;;;4.54;86.94;100612.25;5084162;28;19977;-88
2021/11/09 11:00:16;;;;;;;;;;;;;;;4.61;87.04;100613.09;5087489;28;19970;-85
2021/11/09 11:05:22;;;;;;;;;;;;;;;4.62;87.34;100609.59;5088771;28;20436;-85
2021/11/09 11:07:58;;;;;;;;;;;;;;;4.61;87.21;100593.00;5084279;28;19924;-86
2021/11/09 11:10:28;;;;;;;;;;;;;;;4.65;87.11;100601.72;5087666;28;19967;-85
2021/11/09 11:13:13;;;;;;;;;;;;;;;4.69;87.26;100599.06;5088686;28;19967;-90
2021/11/09 11:15:58;;;;;;;;;;;;;;;4.72;87.48;100600.78;5083004;28;19927;-90
2021/11/09 11:18:38;;;;;;;;;;;;;;;4.72;87.45;100595.53;5085166;28;19946;-88
2021/11/09 11:21:04;;;;;;;;;;;;;;;4.70;87.52;100598.16;5084818;28;19920;-85
2021/11/09 11:23:30;;;;;;;;;;;;;;;4.72;87.59;100592.91;5087960;28;20007;-86
2021/11/09 11:25:56;;;;;;;;;;;;;;;4.75;87.67;100594.66;5103043;28;19920;-85
2021/11/09 11:28:22;;;;;;;;;;;;;;;4.79;87.61;100591.16;5087067;28;19916;-85
2021/11/09 11:30:49;;;;;;;;;;;;;;;4.77;87.67;100578.03;5101147;28;20421;-89
2021/11/09 11:33:14;;;;;;;;;;;;;;;4.85;87.61;100572.69;5085651;28;19916;-85
2021/11/09 11:35:41;;;;;;;;;;;;;;;4.85;88.02;100578.84;5084563;28;19923;-86
2021/11/09 11:38:06;;;;;;;;;;;;;;;4.87;87.89;100570.94;5084804;28;19924;-86
2021/11/09 11:40:32;;;;;;;;;;;;;;;4.87;87.88;100574.44;5119976;28;19921;-86
2021/11/09 11:42:57;;;;;;;;;;;;;;;4.89;87.98;100570.03;5080204;28;20303;-89
2021/11/09 11:45:22;;;;;;;;;;;;;;;4.92;88.08;100558.66;5071254;28;19928;-86
2021/11/09 11:48:04;;;;;;;;;;;;;;;4.94;87.97;100548.13;5072707;28;20420;-89
2021/11/09 11:51:14;;;;;;;;;;;;;;;4.94;88.04;100537.63;5070809;28;19924;-87
2021/11/09 11:53:39;;;;;;;;;;;;;;;4.94;88.07;100537.63;5060738;28;19920;-86
2021/11/09 11:56:04;;;;;;;;;;;;;;;4.93;88.22;100541.13;5073760;28;19917;-85
2021/11/09 11:58:31;;;;;;;;;;;;;;;4.98;88.20;100532.34;5069837;28;19920;-86
2021/11/09 12:00:59;;;;;;;;;;;;;;;5.01;88.24;100528.81;5071985;28;19926;-88
2021/11/09 12:03:24;;;;;;;;;;;;;;;5.02;88.31;100526.16;5073234;28;19920;-85
2021/11/09 12:05:51;;;;;;;;;;;;;;;5.04;88.48;100526.16;5080503;28;19989;-83
2021/11/09 12:08:34;;;;;;;;;;;;;;;5.38;87.89;100521.47;5069250;28;19924;-87
2021/11/09 12:11:01;;;;;;;;;;;;;;;5.21;88.31;100519.00;5106091;28;20343;-88
2021/11/09 12:13:59;;;;;;;;;;;;;;;5.15;88.49;100524.31;5071083;28;20268;-85
2021/11/09 12:16:43;;;;;;;;;;;;;;;5.16;88.99;100512.91;5069782;28;20367;-85
2021/11/09 12:19:30;;;;;;;;;;;;;;;5.19;89.16;100512.03;5102885;28;19924;-85
2021/11/09 12:22:04;;;;;;;;;;;;;;;5.20;88.97;100511.13;5068851;28;19920;-84
2021/11/09 12:24:43;;;;;;;;;;;;;;;5.21;88.90;100505.84;5071714;28;20402;-85
2021/11/09 12:27:09;;;;;;;;;;;;;;;5.21;89.03;100511.13;5068613;28;19970;-86
2021/11/09 12:29:45;;;;;;;;;;;;;;;5.24;88.82;100504.97;5072715;28;19920;-85
2021/11/09 12:32:30;;;;;;;;;;;;;;;5.27;89.13;100508.44;5069834;28;20345;-86
2021/11/09 12:34:58;;;;;;;;;;;;;;;5.27;89.04;100511.06;5065750;28;19921;-85
2021/11/09 12:37:24;;;;;;;;;;;;;;;5.31;88.94;100503.16;5069286;28;19977;-83
2021/11/09 12:39:49;;;;;;;;;;;;;;;5.34;89.00;100500.50;5072042;28;19924;-85
2021/11/09 12:42:14;;;;;;;;;;;;;;;5.37;88.98;100495.22;5070120;28;19928;-86
2021/11/09 12:44:40;;;;;;;;;;;;;;;5.35;89.01;100489.97;5067221;28;19993;-84
2021/11/09 12:47:09;;;;;;;;;;;;;;;5.35;89.01;100487.34;5071204;28;20379;-84
2021/11/09 12:49:38;;;;;;;;;;;;;;;5.40;89.17;100484.66;5073493;28;19973;-84
2021/11/09 12:52:03;;;;;;;;;;;;;;;5.48;89.53;100479.34;5072703;28;19917;-86
2021/11/09 12:54:29;;;;;;;;;;;;;;;5.57;89.98;100477.47;5071545;28;20024;-84
2021/11/09 12:57:02;;;;;;;;;;;;;;;5.65;90.58;100485.28;5069711;28;19924;-84
2021/11/09 12:59:31;;;;;;;;;;;;;;;5.73;90.94;100487.81;5069902;28;20379;-85
2021/11/09 13:05:02;;;;;;;;;;;;;;;5.73;92.15;100488.69;5067628;28;19928;-85
2021/11/09 13:09:59;;;;;;;;;;;;;;;5.78;92.19;100486.84;5070402;28;20011;-84
2021/11/09 13:12:34;;;;;;;;;;;;;;;5.74;92.32;100493.03;5102585;28;19978;-89
2021/11/09 13:15:04;;;;;;;;;;;;;;;5.58;92.25;100492.34;5101080;28;19921;-84
2021/11/09 13:17:35;;;;;;;;;;;;;;;5.28;91.67;100491.78;5068215;28;19925;-84
2021/11/09 13:22:56;;;;;;;;;;;;;;;4.88;92.03;100497.41;5071238;28;19917;-90
2021/11/09 13:25:36;;;;;;;;;;;;;;;4.94;93.61;100499.09;5064007;28;19921;-89
2021/11/09 13:28:06;;;;;;;;;;;;;;;5.04;95.41;100492.91;5065477;28;20401;-85
2021/11/09 13:30:33;;;;;;;;;;;;;;;5.04;98.02;100490.28;5066456;28;19920;-89
2021/11/09 13:32:59;;;;;;;;;;;;;;;5.15;100.00;100484.03;5068572;28;19920;-90
2021/11/09 13:35:32;;;;;;;;;;;;;;;5.26;100.00;100485.69;5065604;28;19929;-86
2021/11/09 13:38:14;;;;;;;;;;;;;;;5.46;100.00;100474.09;5069965;28;19935;-84
2021/11/09 13:40:43;;;;;;;;;;;;;;;5.69;100.00;100475.59;5069736;28;19943;-89
2021/11/09 13:43:09;;;;;;;;;;;;;;;5.80;100.00;100482.44;5102704;28;19929;-86
2021/11/09 13:45:35;;;;;;;;;;;;;;;5.90;100.00;100474.44;5065774;28;19930;-84
2021/11/09 13:48:09;;;;;;;;;;;;;;;5.96;100.00;100474.38;5068254;28;19921;-90
2021/11/09 13:50:34;;;;;;;;;;;;;;;6.01;100.00;100462.03;5070629;28;19917;-86
2021/11/09 13:53:00;;;;;;;;;;;;;;;6.09;100.00;100469.84;5071348;28;19920;-85
2021/11/09 13:55:25;;;;;;;;;;;;;;;6.15;100.00;100459.25;5071829;28;19924;-88
2021/11/09 13:57:50;;;;;;;;;;;;;;;6.18;100.00;100457.44;5069463;28;19927;-86
2021/11/09 14:00:23;;;;;;;;;;;;;;;6.24;100.00;100455.59;5067180;28;19928;-87
2021/11/09 14:03:00;;;;;;;;;;;;;;;6.28;100.00;100455.53;5068164;28;20340;-85
2021/11/09 14:13:54;;;;;;;;;;;;;;;6.43;100.00;100450.94;5068920;28;20011;-87
2021/11/09 14:16:36;;;;;;;;;;;;;;;6.46;100.00;100443.88;5068557;28;19920;-86
2021/11/09 14:19:02;;;;;;;;;;;;;;;6.44;100.00;100450.03;5068528;28;19935;-87
2021/11/09 14:21:37;;;;;;;;;;;;;;;6.50;100.00;100439.44;5068361;28;19924;-89
2021/11/09 14:24:13;;;;;;;;;;;;;;;6.53;100.00;100442.88;5068699;28;19928;-84
2021/11/09 14:26:39;;;;;;;;;;;;;;;5.59;100.00;100453.78;5066453;28;19931;-85
2021/11/09 14:29:15;;;;;;;;;;;;;;;3.86;100.00;100455.22;5065981;28;20291;-85
2021/11/09 14:31:45;;;;;;;;;;;;;;;3.28;100.00;100451.03;5067880;28;19973;-85
2021/11/09 14:34:11;;;;;;;;;;;;;;;2.99;100.00;100449.34;5066772;28;19951;-90
2021/11/09 14:36:37;;;;;;;;;;;;;;;2.77;100.00;100445.00;5067735;28;19932;-86
2021/11/09 14:39:07;;;;;;;;;;;;;;;2.68;100.00;100446.75;5069480;28;20023;-85
2021/11/09 14:41:38;;;;;;;;;;;;;;;2.35;98.66;100445.00;5070647;28;19925;-85
2021/11/09 14:44:04;;;;;;;;;;;;;;;2.24;97.20;100449.34;5068457;28;19942;-88
2021/11/09 14:46:37;;;;;;;;;;;;;;;2.11;96.01;100451.91;5068454;28;19925;-88
2021/11/09 14:49:07;;;;;;;;;;;;;;;1.99;94.41;100450.16;5069829;28;19924;-85
2021/11/09 14:51:34;;;;;;;;;;;;;;;1.87;93.91;100443.97;5067559;28;19921;-86
2021/11/09 14:54:11;;;;;;;;;;;;;;;1.79;92.69;100442.25;5099962;28;19920;-87
2021/11/09 14:56:37;;;;;;;;;;;;;;;1.62;91.49;100447.38;5069116;28;19920;-87
2021/11/09 14:59:05;;;;;;;;;;;;;;;1.57;91.35;100445.63;5066577;28;19926;-84
2021/11/09 15:01:45;;;;;;;;;;;;;;;1.27;90.49;100447.22;5069236;28;20398;-88
2021/11/09 15:04:40;;;;;;;;;;;;;;;1.12;90.32;100448.00;5101049;28;19920;-84
2021/11/09 15:07:08;;;;;;;;;;;;;;;1.15;89.76;100439.31;5067920;28;19959;-85
2021/11/09 15:28:20;;;;;;;;;;;;;;;0.58;88.03;100436.31;5074891;28;20264;-85
2021/11/09 15:30:50;;;;;;;;;;;;;;;0.46;87.84;100426.63;5071142;28;19924;-84
2021/11/09 15:33:29;;;;;;;;;;;;;;;0.56;89.79;100420.66;5071519;28;19925;-83
2021/11/09 15:38:39;;;;;;;;;;;;;;;1.26;95.80;100430.69;5073939;28;20066;-84
2021/11/09 15:41:05;;;;;;;;;;;;;;;1.52;98.40;100435.16;5073229;28;20003;-88
2021/11/09 15:43:32;;;;;;;;;;;;;;;1.68;100.00;100440.47;5071247;28;19925;-84
2021/11/09 15:46:01;;;;;;;;;;;;;;;1.83;100.00;100432.66;5072848;28;20053;-83
2021/11/09 15:48:26;;;;;;;;;;;;;;;1.91;100.00;100437.91;5073396;28;20424;-84
2021/11/09 15:50:53;;;;;;;;;;;;;;;2.04;100.00;100429.22;5071987;28;20019;-84
2021/11/09 15:53:18;;;;;;;;;;;;;;;2.06;100.00;100432.75;5070752;28;20384;-85
2021/11/09 15:55:44;;;;;;;;;;;;;;;2.11;100.00;100435.38;5070349;28;19931;-84
2021/11/09 15:58:10;;;;;;;;;;;;;;;2.10;100.00;100437.09;5069293;28;20429;-86
2021/11/09 16:00:37;;;;;;;;;;;;;;;2.15;100.00;100437.09;5070295;28;20787;-87
2021/11/09 16:03:02;;;;;;;;;;;;;;;2.18;100.00;100435.34;5070366;28;19920;-87
2021/11/09 16:05:28;;;;;;;;;;;;;;;2.22;100.00;100440.59;5072838;28;20294;-85
2021/11/09 16:07:54;;;;;;;;;;;;;;;2.24;100.00;100439.72;5070795;28;20348;-85
2021/11/09 16:10:20;;;;;;;;;;;;;;;2.24;100.00;100437.13;5072737;28;19924;-84
2021/11/09 16:12:46;;;;;;;;;;;;;;;2.28;100.00;100433.66;5073848;28;19920;-85
2021/11/09 16:15:11;;;;;;;;;;;;;;;2.27;100.00;100431.03;5069651;28;19921;-84
2021/11/09 16:17:39;;;;;;;;;;;;;;;2.33;100.00;100431.91;5071205;28;19939;-87
2021/11/09 16:20:05;;;;;;;;;;;;;;;2.30;100.00;100431.91;5070727;28;19927;-84
2021/11/09 16:22:34;;;;;;;;;;;;;;;2.36;100.00;100426.69;5071051;28;20011;-85
2021/11/09 16:25:00;;;;;;;;;;;;;;;2.47;100.00;100425.81;5070651;28;19924;-86
2021/11/09 16:27:25;;;;;;;;;;;;;;;2.42;100.00;100424.94;5068231;28;19978;-84
2021/11/09 16:29:56;;;;;;;;;;;;;;;2.50;100.00;100420.56;5069927;28;19921;-86
2021/11/09 16:32:29;;;;;;;;;;;;;;;2.50;100.00;100426.66;5072151;28;20287;-84
2021/11/09 16:35:16;;;;;;;;;;;;;;;2.53;100.00;100428.44;5104863;28;19994;-86
2021/11/09 16:37:42;;;;;;;;;;;;;;;2.54;99.82;100431.03;5103485;28;19921;-85
2021/11/09 16:40:11;;;;;;;;;;;;;;;2.60;99.40;100438.03;5069893;28;20413;-83
2021/11/09 16:42:40;;;;;;;;;;;;;;;2.67;98.84;100447.63;5070689;28;19947;-83
2021/11/09 16:45:07;;;;;;;;;;;;;;;2.68;98.26;100441.53;5071883;28;19920;-84
2021/11/09 16:47:33;;;;;;;;;;;;;;;2.74;97.68;100445.84;5105171;28;19920;-84
2021/11/09 16:52:45;;;;;;;;;;;;;;;2.86;95.17;100458.94;5070451;28;20286;-89
2021/11/09 18:14:08;;;;;;;;;;;;;;;3.28;82.10;100506.03;5071024;28;20015;-83
2021/11/09 18:21:59;;;;;;;;;;;;;;;3.25;81.54;100482.47;5072239;28;19926;-84
2021/11/09 18:24:24;;;;;;;;;;;;;;;3.26;81.28;100490.31;5072139;28;20023;-84
2021/11/09 18:26:53;;;;;;;;;;;;;;;3.25;81.00;100477.22;5070347;28;20260;-84
2021/11/09 18:29:20;;;;;;;;;;;;;;;3.36;81.03;100478.06;5070970;28;20268;-87
2021/11/09 18:31:45;;;;;;;;;;;;;;;3.34;81.05;100476.34;5071522;28;19928;-83
2021/11/09 18:34:11;;;;;;;;;;;;;;;3.33;81.14;100469.34;5071557;28;19917;-83
2021/11/09 18:36:36;;;;;;;;;;;;;;;3.31;80.81;100473.75;5071820;28;19920;-84
2021/11/09 18:39:01;;;;;;;;;;;;;;;3.42;80.72;100479.81;5071751;28;20271;-84
2021/11/09 18:41:27;;;;;;;;;;;;;;;3.52;80.62;100485.91;5071676;28;19925;-88
2021/11/09 18:43:52;;;;;;;;;;;;;;;3.53;80.52;100485.03;5070330;28;19958;-84
2021/11/09 18:46:23;;;;;;;;;;;;;;;3.43;80.15;100477.19;5071665;28;19921;-85
2021/11/09 18:48:51;;;;;;;;;;;;;;;3.55;80.27;100485.91;5078729;28;19916;-84
2021/11/09 18:51:16;;;;;;;;;;;;;;;3.52;80.18;100476.28;5070348;28;19921;-88
2021/11/09 18:53:42;;;;;;;;;;;;;;;3.48;80.12;100478.91;5074202;28;19924;-86
2021/11/09 18:56:09;;;;;;;;;;;;;;;3.65;79.76;100498.09;5074406;28;19970;-84
2021/11/09 18:58:34;;;;;;;;;;;;;;;3.67;79.70;100485.88;5074301;28;19916;-84
2021/11/09 19:01:00;;;;;;;;;;;;;;;3.59;79.50;100482.38;5075417;28;19928;-87
2021/11/09 19:03:25;;;;;;;;;;;;;;;3.64;80.20;100485.88;5075520;28;20003;-88
2021/11/09 19:05:51;;;;;;;;;;;;;;;3.62;79.77;100490.22;5075411;28;20358;-85
2021/11/09 19:08:16;;;;;;;;;;;;;;;3.64;79.64;100485.88;5081582;28;20311;-85
2021/11/09 19:10:42;;;;;;;;;;;;;;;3.71;79.64;100469.22;5073761;28;19925;-85
2021/11/09 19:13:07;;;;;;;;;;;;;;;3.75;79.68;100457.88;5075215;28;19956;-85
2021/11/09 19:15:33;;;;;;;;;;;;;;;3.76;79.55;100459.59;5072554;28;19917;-87
2021/11/09 19:17:58;;;;;;;;;;;;;;;3.72;78.83;100468.38;5074965;28;19923;-84
2021/11/09 19:20:24;;;;;;;;;;;;;;;3.76;78.71;100479.69;5073614;28;19959;-88
2021/11/09 19:22:52;;;;;;;;;;;;;;;3.77;79.14;100470.97;5074871;28;20317;-87
2021/11/09 19:25:18;;;;;;;;;;;;;;;3.71;78.95;100468.38;5092369;28;19920;-87
2021/11/09 19:27:43;;;;;;;;;;;;;;;3.79;78.83;100477.94;5092757;28;20070;-87
2021/11/09 19:30:10;;;;;;;;;;;;;;;3.79;78.52;100458.72;5091498;28;19915;-87
2021/11/09 19:32:36;;;;;;;;;;;;;;;3.80;78.93;100465.72;5092558;28;19922;-86
2021/11/09 19:35:02;;;;;;;;;;;;;;;3.94;79.08;100447.28;5092771;28;19924;-88
2021/11/09 19:37:27;;;;;;;;;;;;;;;3.91;78.46;100455.16;5092686;28;19920;-84
2021/11/09 19:39:53;;;;;;;;;;;;;;;3.95;78.95;100467.38;5092485;28;19920;-84
2021/11/09 19:44:59;;;;;;;;;;;;;;;4.04;78.71;100474.31;5091291;28;20405;-84
2021/11/09 19:47:25;;;;;;;;;;;;;;;4.00;78.68;100468.22;5092630;28;19920;-86
2021/11/09 19:49:51;;;;;;;;;;;;;;;4.00;78.31;100462.97;5083391;28;19917;-84
2021/11/09 19:52:16;;;;;;;;;;;;;;;4.08;78.45;100474.31;5074106;28;20016;-85
2021/11/09 19:54:42;;;;;;;;;;;;;;;4.08;78.05;100471.69;5074407;28;19963;-88
2021/11/09 19:57:08;;;;;;;;;;;;;;;4.09;77.99;100472.56;5072733;28;20359;-85
2021/11/09 19:59:34;;;;;;;;;;;;;;;4.06;77.84;100476.06;5071812;28;19928;-86
2021/11/09 20:01:59;;;;;;;;;;;;;;;4.12;77.92;100472.56;5074331;28;19921;-84
2021/11/09 20:04:27;;;;;;;;;;;;;;;4.08;78.11;100461.19;5073700;28;19924;-84
2021/11/09 20:06:53;;;;;;;;;;;;;;;4.24;77.75;100451.47;5074018;28;20363;-86
2021/11/09 20:09:20;;;;;;;;;;;;;;;4.25;77.73;100455.00;5074282;28;19927;-85
2021/11/09 20:11:46;;;;;;;;;;;;;;;4.26;77.41;100475.09;5072723;28;20341;-86
2021/11/09 20:16:56;;;;;;;;;;;;;;;4.28;77.36;100466.34;5074327;28;19924;-84
2021/11/09 20:19:22;;;;;;;;;;;;;;;4.24;77.49;100466.34;5071689;28;19999;-84
2021/11/09 20:21:52;;;;;;;;;;;;;;;4.28;77.57;100458.47;5072649;28;20027;-88
2021/11/09 20:24:17;;;;;;;;;;;;;;;4.31;77.19;100460.22;5072759;28;19925;-88
2021/11/09 20:26:43;;;;;;;;;;;;;;;4.31;77.20;100479.44;5074000;28;19923;-86
2021/11/09 20:29:09;;;;;;;;;;;;;;;4.35;77.13;100488.16;5072515;28;19989;-87
2021/11/09 20:31:34;;;;;;;;;;;;;;;4.32;76.82;100496.03;5072294;28;19924;-84
2021/11/09 20:34:00;;;;;;;;;;;;;;;4.34;77.24;100489.91;5072022;28;19917;-87
2021/11/09 20:36:25;;;;;;;;;;;;;;;4.34;77.01;100479.41;5072413;28;20375;-87
2021/11/09 20:38:50;;;;;;;;;;;;;;;4.33;77.29;100477.66;5073570;28;20015;-89
2021/11/09 20:41:20;;;;;;;;;;;;;;;4.37;77.00;100486.38;5072279;28;19925;-89
2021/11/09 20:43:45;;;;;;;;;;;;;;;4.36;77.26;100479.41;5070811;28;19966;-87
2021/11/09 20:46:11;;;;;;;;;;;;;;;4.36;77.30;100484.66;5072209;28;19916;-87
2021/11/09 20:48:37;;;;;;;;;;;;;;;4.40;77.39;100483.75;5073406;28;20513;-88
2021/11/09 20:51:03;;;;;;;;;;;;;;;4.34;77.12;100473.28;5073151;28;20104;-87
2021/11/09 20:53:29;;;;;;;;;;;;;;;4.38;76.97;100475.00;5072079;28;19917;-84
2021/11/09 20:55:54;;;;;;;;;;;;;;;4.33;76.99;100476.81;5073250;28;20278;-88
2021/11/09 20:58:19;;;;;;;;;;;;;;;4.35;77.00;100480.28;5073241;28;19927;-85
2021/11/09 21:00:45;;;;;;;;;;;;;;;4.32;76.90;100457.56;5070707;28;19940;-83
2021/11/09 21:03:11;;;;;;;;;;;;;;;4.36;77.17;100471.53;5073119;28;19944;-87
2021/11/09 21:05:37;;;;;;;;;;;;;;;4.41;77.20;100476.75;5073297;28;20363;-83
2021/11/09 21:08:02;;;;;;;;;;;;;;;4.39;77.47;100475.88;5072813;28;19917;-85
2021/11/09 21:10:29;;;;;;;;;;;;;;;4.43;77.31;100472.38;5073196;28;19928;-86
2021/11/09 21:18:24;;;;;;;;;;;;;;;4.39;77.66;100489.00;5062281;28;19921;-86
2021/11/09 21:20:55;;;;;;;;;;;;;;;4.41;77.65;100466.25;5071549;28;20042;-87
2021/11/09 21:23:21;;;;;;;;;;;;;;;4.43;77.58;100472.38;5072173;28;19916;-86
2021/11/09 21:25:46;;;;;;;;;;;;;;;4.41;77.64;100468.88;5071582;28;19916;-88
2021/11/09 21:28:12;;;;;;;;;;;;;;;4.47;77.77;100468.84;5071273;28;19970;-88
2021/11/09 21:35:49;;;;;;;;;;;;;;;4.46;77.84;100456.59;5078549;28;19925;-87
2021/11/09 21:38:15;;;;;;;;;;;;;;;4.52;78.05;100446.06;5072510;28;19929;-86
2021/11/09 21:40:40;;;;;;;;;;;;;;;4.49;78.09;100440.81;5072471;28;19948;-88
2021/11/09 21:43:07;;;;;;;;;;;;;;;4.52;78.15;100440.81;5070619;28;19916;-88
2021/11/09 21:45:33;;;;;;;;;;;;;;;4.52;78.13;100446.91;5071064;28;19924;-86
2021/11/09 21:47:59;;;;;;;;;;;;;;;4.57;78.32;100448.66;5070657;28;19962;-88
2021/11/09 21:50:25;;;;;;;;;;;;;;;4.53;78.23;100458.28;5072324;28;19921;-87
2021/11/09 21:52:52;;;;;;;;;;;;;;;4.54;78.37;100457.41;5072201;28;19920;-87
2021/11/09 21:55:18;;;;;;;;;;;;;;;4.55;78.30;100467.91;5070334;28;19916;-87
2021/11/09 21:57:44;;;;;;;;;;;;;;;4.55;78.58;100473.16;5072368;28;19973;-85
2021/11/09 22:00:11;;;;;;;;;;;;;;;4.56;78.65;100453.00;5070881;28;20317;-87
2021/11/09 22:02:37;;;;;;;;;;;;;;;4.55;78.85;100452.16;5072033;28;20278;-87
2021/11/09 22:05:02;;;;;;;;;;;;;;;4.61;78.85;100451.25;5062550;28;19924;-86
2021/11/09 22:07:27;;;;;;;;;;;;;;;4.61;78.67;100455.59;5071582;28;20279;-87
2021/11/09 22:09:53;;;;;;;;;;;;;;;4.62;78.93;100452.09;5072272;28;19923;-87
2021/11/09 22:12:18;;;;;;;;;;;;;;;4.65;78.92;100452.09;5071669;28;19920;-87
2021/11/09 22:14:43;;;;;;;;;;;;;;;4.65;78.87;100455.56;5070666;28;19917;-87
2021/11/09 22:17:09;;;;;;;;;;;;;;;4.67;78.82;100452.94;5071900;28;19959;-86
2021/11/09 22:19:34;;;;;;;;;;;;;;;4.69;79.01;100441.53;5071961;28;19955;-87
2021/11/09 22:21:59;;;;;;;;;;;;;;;4.65;79.00;100445.06;5071863;28;20252;-84
2021/11/09 22:24:25;;;;;;;;;;;;;;;4.68;79.07;100459.94;5071846;28;19923;-84
2021/11/09 22:26:51;;;;;;;;;;;;;;;4.73;79.03;100466.00;5071913;28;19916;-86
2021/11/09 22:29:17;;;;;;;;;;;;;;;4.72;79.04;100469.50;5069252;28;19974;-89
2021/11/09 22:31:43;;;;;;;;;;;;;;;4.73;78.89;100468.63;5070427;28;19920;-84
2021/11/09 22:34:09;;;;;;;;;;;;;;;4.72;78.76;100466.88;5078776;28;19916;-86
2021/11/09 22:36:34;;;;;;;;;;;;;;;4.75;78.95;100471.25;5070727;28;19921;-82